Terminal Aerodrome Forecast
Issued by NWS Upton, NY

Home | Current Version | Previous Version | Text Only | Print | Product List | Glossary On
Versions: 1 2 3 4 5 6 7 8 9 10 11 12 13 14 15 16 17 18 19 20 21 22 23 24 25 26 27
000
FTUS41 KOKX 310538
TAFEWR
TAF
KEWR 310538Z 3106/0112 28007KT P6SM FEW015 SCT070 BKN250
      TEMPO 3106/3108 6SM BR
     FM310800 32007KT P6SM FEW070 SCT250
     FM311600 28011G18KT P6SM FEW060
     FM010000 26008KT P6SM FEW050=

USA.gov is the U.S. government's official web portal to all federal, state and local government web resources and services.